sensor_id;sensor_type;location;lat;lon;timestamp;pressure;altitude;pressure_sealevel;temperature;humidity
72024;BME280;59889;50.700;5.440;2022-10-16T00:00:37;99557.06;;;22.83;37.09
72024;BME280;59889;50.700;5.440;2022-10-16T00:03:00;99559.89;;;22.99;36.86
72024;BME280;59889;50.700;5.440;2022-10-16T00:05:25;99563.12;;;22.57;37.08
72024;BME280;59889;50.700;5.440;2022-10-16T00:07:50;99560.74;;;22.95;36.89
72024;BME280;59889;50.700;5.440;2022-10-16T00:10:16;99561.36;;;22.92;36.97
72024;BME280;59889;50.700;5.440;2022-10-16T00:12:40;99557.89;;;22.88;36.96
72024;BME280;59889;50.700;5.440;2022-10-16T00:15:06;99552.46;;;23.11;36.97
72024;BME280;59889;50.700;5.440;2022-10-16T00:17:31;99550.18;;;22.81;37.04
72024;BME280;59889;50.700;5.440;2022-10-16T00:19:55;99549.23;;;22.97;36.86
72024;BME280;59889;50.700;5.440;2022-10-16T00:22:21;99541.90;;;23.19;36.90
72024;BME280;59889;50.700;5.440;2022-10-16T00:24:46;99550.88;;;22.65;37.01
72024;BME280;59889;50.700;5.440;2022-10-16T00:27:11;99558.20;;;22.70;36.91
72024;BME280;59889;50.700;5.440;2022-10-16T00:29:36;99558.90;;;22.68;36.91
72024;BME280;59889;50.700;5.440;2022-10-16T00:32:01;99552.98;;;23.02;36.74
72024;BME280;59889;50.700;5.440;2022-10-16T00:34:26;99545.71;;;23.00;36.78
72024;BME280;59889;50.700;5.440;2022-10-16T00:36:51;99543.40;;;22.68;36.89
72024;BME280;59889;50.700;5.440;2022-10-16T00:39:16;99558.89;;;22.99;36.81
72024;BME280;59889;50.700;5.440;2022-10-16T00:41:41;99561.84;;;22.96;36.85
72024;BME280;59889;50.700;5.440;2022-10-16T00:46:35;99572.56;;;22.71;36.85
72024;BME280;59889;50.700;5.440;2022-10-16T00:48:59;99575.57;;;22.98;36.80
72024;BME280;59889;50.700;5.440;2022-10-16T00:51:24;99569.07;;;23.14;36.88
72024;BME280;59889;50.700;5.440;2022-10-16T00:53:46;99563.02;;;22.68;36.90
72024;BME280;59889;50.700;5.440;2022-10-16T00:56:11;99553.25;;;22.91;36.82
72024;BME280;59889;50.700;5.440;2022-10-16T00:58:36;99558.13;;;22.61;36.93
72024;BME280;59889;50.700;5.440;2022-10-16T01:01:01;99566.46;;;22.96;36.84
72024;BME280;59889;50.700;5.440;2022-10-16T01:03:29;99575.56;;;22.68;36.84
72024;BME280;59889;50.700;5.440;2022-10-16T01:05:59;99580.53;;;22.88;36.91
72024;BME280;59889;50.700;5.440;2022-10-16T01:08:24;99584.87;;;23.13;36.90
72024;BME280;59889;50.700;5.440;2022-10-16T01:10:47;99587.74;;;22.90;36.87
72024;BME280;59889;50.700;5.440;2022-10-16T01:13:08;99585.78;;;22.97;36.76
72024;BME280;59889;50.700;5.440;2022-10-16T01:15:34;99589.50;;;22.92;36.84
72024;BME280;59889;50.700;5.440;2022-10-16T01:18:00;99599.04;;;22.78;36.73
72024;BME280;59889;50.700;5.440;2022-10-16T01:20:27;99602.87;;;23.00;36.74
72024;BME280;59889;50.700;5.440;2022-10-16T01:22:58;99601.38;;;22.67;36.84
72024;BME280;59889;50.700;5.440;2022-10-16T01:25:19;99602.86;;;22.90;36.83
72024;BME280;59889;50.700;5.440;2022-10-16T01:27:39;99603.86;;;22.90;36.84
72024;BME280;59889;50.700;5.440;2022-10-16T01:30:07;99601.15;;;22.68;36.86
72024;BME280;59889;50.700;5.440;2022-10-16T01:32:32;99601.93;;;22.91;36.90
72024;BME280;59889;50.700;5.440;2022-10-16T01:34:57;99598.22;;;22.93;36.76
72024;BME280;59889;50.700;5.440;2022-10-16T01:37:24;99590.12;;;22.89;36.83
72024;BME280;59889;50.700;5.440;2022-10-16T01:39:45;99593.21;;;22.97;36.77
72024;BME280;59889;50.700;5.440;2022-10-16T01:42:11;99598.36;;;22.97;36.75
72024;BME280;59889;50.700;5.440;2022-10-16T01:44:33;99596.02;;;22.93;36.79
72024;BME280;59889;50.700;5.440;2022-10-16T01:46:57;99595.21;;;22.82;36.99
72024;BME280;59889;50.700;5.440;2022-10-16T01:49:25;99598.08;;;22.77;36.70
72024;BME280;59889;50.700;5.440;2022-10-16T01:51:50;99590.35;;;22.90;36.79
72024;BME280;59889;50.700;5.440;2022-10-16T01:54:14;99597.20;;;22.98;36.72
72024;BME280;59889;50.700;5.440;2022-10-16T01:56:39;99594.06;;;22.62;36.85
72024;BME280;59889;50.700;5.440;2022-10-16T01:59:05;99596.07;;;22.97;36.71
72024;BME280;59889;50.700;5.440;2022-10-16T02:01:31;99598.27;;;22.47;36.73
72024;BME280;59889;50.700;5.440;2022-10-16T02:03:55;99595.65;;;22.93;36.76
72024;BME280;59889;50.700;5.440;2022-10-16T02:06:18;99591.23;;;22.87;36.85
72024;BME280;59889;50.700;5.440;2022-10-16T02:08:43;99590.96;;;23.02;36.64
72024;BME280;59889;50.700;5.440;2022-10-16T02:11:08;99584.62;;;22.92;36.77
72024;BME280;59889;50.700;5.440;2022-10-16T02:13:35;99583.43;;;22.84;36.88
72024;BME280;59889;50.700;5.440;2022-10-16T02:15:58;99581.34;;;22.89;36.79
72024;BME280;59889;50.700;5.440;2022-10-16T02:18:24;99582.69;;;22.91;36.75
72024;BME280;59889;50.700;5.440;2022-10-16T02:20:52;99587.56;;;22.71;36.73
72024;BME280;59889;50.700;5.440;2022-10-16T02:23:17;99580.13;;;22.89;36.81
72024;BME280;59889;50.700;5.440;2022-10-16T02:25:40;99586.82;;;22.89;36.80
72024;BME280;59889;50.700;5.440;2022-10-16T02:28:07;99590.57;;;22.66;36.75
72024;BME280;59889;50.700;5.440;2022-10-16T02:30:31;99599.02;;;22.81;36.89
72024;BME280;59889;50.700;5.440;2022-10-16T02:32:53;99600.48;;;22.76;36.65
72024;BME280;59889;50.700;5.440;2022-10-16T02:35:20;99593.10;;;22.90;36.76
72024;BME280;59889;50.700;5.440;2022-10-16T02:37:44;99589.80;;;22.89;36.77
72024;BME280;59889;50.700;5.440;2022-10-16T02:40:09;99583.47;;;22.73;36.67
72024;BME280;59889;50.700;5.440;2022-10-16T02:42:36;99585.27;;;22.95;36.70
72024;BME280;59889;50.700;5.440;2022-10-16T02:44:58;99588.01;;;22.85;36.85
72024;BME280;59889;50.700;5.440;2022-10-16T02:47:23;99594.36;;;22.96;36.70
72024;BME280;59889;50.700;5.440;2022-10-16T02:49:48;99596.48;;;22.91;36.80
72024;BME280;59889;50.700;5.440;2022-10-16T02:52:13;99599.15;;;22.91;36.73
72024;BME280;59889;50.700;5.440;2022-10-16T02:54:38;99601.01;;;22.80;36.90
72024;BME280;59889;50.700;5.440;2022-10-16T02:57:03;99593.85;;;22.91;36.73
72024;BME280;59889;50.700;5.440;2022-10-16T02:59:28;99603.75;;;22.65;36.76
72024;BME280;59889;50.700;5.440;2022-10-16T03:01:54;99604.02;;;22.89;36.74
72024;BME280;59889;50.700;5.440;2022-10-16T03:04:19;99604.47;;;22.85;36.79
72024;BME280;59889;50.700;5.440;2022-10-16T03:06:44;99603.09;;;22.89;36.73
72024;BME280;59889;50.700;5.440;2022-10-16T03:09:09;99594.17;;;22.90;36.73
72024;BME280;59889;50.700;5.440;2022-10-16T03:11:34;99594.19;;;22.67;36.78
72024;BME280;59889;50.700;5.440;2022-10-16T03:13:59;99594.51;;;22.88;36.76
72024;BME280;59889;50.700;5.440;2022-10-16T03:16:24;99599.94;;;22.49;36.69
72024;BME280;59889;50.700;5.440;2022-10-16T03:18:49;99611.89;;;22.85;36.80
72024;BME280;59889;50.700;5.440;2022-10-16T03:21:14;99623.72;;;22.99;36.62
72024;BME280;59889;50.700;5.440;2022-10-16T03:23:39;99630.09;;;23.19;36.66
72024;BME280;59889;50.700;5.440;2022-10-16T03:26:04;99628.90;;;22.92;36.70
72024;BME280;59889;50.700;5.440;2022-10-16T03:28:29;99624.83;;;22.84;36.84
72024;BME280;59889;50.700;5.440;2022-10-16T03:30:54;99624.35;;;22.77;36.92
72024;BME280;59889;50.700;5.440;2022-10-16T03:33:19;99628.34;;;22.91;36.68
72024;BME280;59889;50.700;5.440;2022-10-16T03:35:51;99625.88;;;22.85;36.73
72024;BME280;59889;50.700;5.440;2022-10-16T03:38:09;99622.72;;;22.86;36.81
72024;BME280;59889;50.700;5.440;2022-10-16T03:40:34;99623.95;;;22.91;36.70
72024;BME280;59889;50.700;5.440;2022-10-16T03:42:59;99625.88;;;22.65;36.72
72024;BME280;59889;50.700;5.440;2022-10-16T03:45:24;99627.24;;;22.65;36.78
72024;BME280;59889;50.700;5.440;2022-10-16T03:47:49;99636.28;;;22.82;36.81
72024;BME280;59889;50.700;5.440;2022-10-16T03:50:15;99631.63;;;22.55;36.84
72024;BME280;59889;50.700;5.440;2022-10-16T03:52:40;99626.81;;;22.86;36.78
72024;BME280;59889;50.700;5.440;2022-10-16T03:55:06;99632.94;;;22.98;36.57
72024;BME280;59889;50.700;5.440;2022-10-16T03:57:30;99639.08;;;22.97;36.63
72024;BME280;59889;50.700;5.440;2022-10-16T03:59:55;99634.12;;;22.66;36.74
72024;BME280;59889;50.700;5.440;2022-10-16T04:02:20;99633.45;;;22.63;36.71
72024;BME280;59889;50.700;5.440;2022-10-16T04:04:45;99639.68;;;22.71;36.59
72024;BME280;59889;50.700;5.440;2022-10-16T04:07:10;99643.05;;;22.97;36.64
72024;BME280;59889;50.700;5.440;2022-10-16T04:09:35;99644.30;;;22.91;36.65
72024;BME280;59889;50.700;5.440;2022-10-16T04:12:00;99656.47;;;22.92;36.66
72024;BME280;59889;50.700;5.440;2022-10-16T04:14:25;99663.51;;;22.83;36.73
72024;BME280;59889;50.700;5.440;2022-10-16T04:16:50;99670.93;;;22.90;36.72
72024;BME280;59889;50.700;5.440;2022-10-16T04:19:15;99668.35;;;22.83;36.77
72024;BME280;59889;50.700;5.440;2022-10-16T04:21:40;99666.08;;;23.12;36.76
72024;BME280;59889;50.700;5.440;2022-10-16T04:24:05;99669.40;;;22.87;36.68
72024;BME280;59889;50.700;5.440;2022-10-16T04:26:31;99668.64;;;22.97;36.59
72024;BME280;59889;50.700;5.440;2022-10-16T04:28:56;99666.04;;;22.89;36.68
72024;BME280;59889;50.700;5.440;2022-10-16T04:31:20;99664.61;;;22.90;36.69
72024;BME280;59889;50.700;5.440;2022-10-16T04:33:45;99673.62;;;22.87;36.70
72024;BME280;59889;50.700;5.440;2022-10-16T04:36:10;99679.52;;;22.79;36.79
72024;BME280;59889;50.700;5.440;2022-10-16T04:38:36;99680.57;;;22.93;36.62
72024;BME280;59889;50.700;5.440;2022-10-16T04:41:00;99685.82;;;22.91;36.65
72024;BME280;59889;50.700;5.440;2022-10-16T04:43:26;99695.01;;;22.65;36.66
72024;BME280;59889;50.700;5.440;2022-10-16T04:45:51;99700.91;;;22.89;36.66
72024;BME280;59889;50.700;5.440;2022-10-16T04:48:16;99696.12;;;23.15;36.63
72024;BME280;59889;50.700;5.440;2022-10-16T04:50:41;99700.45;;;23.14;36.63
72024;BME280;59889;50.700;5.440;2022-10-16T04:53:06;99701.26;;;22.85;36.82
72024;BME280;59889;50.700;5.440;2022-10-16T04:55:31;99705.23;;;23.08;36.76
72024;BME280;59889;50.700;5.440;2022-10-16T04:57:56;99701.73;;;22.64;36.73
72024;BME280;59889;50.700;5.440;2022-10-16T05:00:21;99702.80;;;22.61;36.72
72024;BME280;59889;50.700;5.440;2022-10-16T05:02:46;99706.49;;;22.85;36.69
72024;BME280;59889;50.700;5.440;2022-10-16T05:05:11;99704.90;;;22.83;36.81
72024;BME280;59889;50.700;5.440;2022-10-16T05:07:36;99708.84;;;22.57;36.79
72024;BME280;59889;50.700;5.440;2022-10-16T05:10:01;99717.03;;;22.88;36.66
72024;BME280;59889;50.700;5.440;2022-10-16T05:12:26;99720.23;;;22.86;36.69
72024;BME280;59889;50.700;5.440;2022-10-16T05:14:51;99721.96;;;22.71;36.91
72024;BME280;59889;50.700;5.440;2022-10-16T05:17:16;99723.64;;;22.86;36.67
72024;BME280;59889;50.700;5.440;2022-10-16T05:19:41;99724.74;;;22.78;36.82
72024;BME280;59889;50.700;5.440;2022-10-16T05:22:06;99726.41;;;22.49;36.84
72024;BME280;59889;50.700;5.440;2022-10-16T05:24:31;99730.88;;;22.88;36.70
72024;BME280;59889;50.700;5.440;2022-10-16T05:26:56;99737.32;;;22.82;36.76
72024;BME280;59889;50.700;5.440;2022-10-16T05:29:21;99745.51;;;22.90;36.59
72024;BME280;59889;50.700;5.440;2022-10-16T05:31:46;99751.89;;;22.83;36.75
72024;BME280;59889;50.700;5.440;2022-10-16T05:34:12;99754.17;;;22.95;36.87
72024;BME280;59889;50.700;5.440;2022-10-16T05:36:36;99745.98;;;22.97;36.57
72024;BME280;59889;50.700;5.440;2022-10-16T05:39:02;99746.33;;;22.86;36.65
72024;BME280;59889;50.700;5.440;2022-10-16T05:41:27;99749.34;;;22.87;36.68
72024;BME280;59889;50.700;5.440;2022-10-16T05:43:52;99752.28;;;22.89;36.59
72024;BME280;59889;50.700;5.440;2022-10-16T05:46:17;99758.96;;;22.89;36.55
72024;BME280;59889;50.700;5.440;2022-10-16T05:48:42;99769.19;;;22.85;36.61
72024;BME280;59889;50.700;5.440;2022-10-16T05:51:10;99769.09;;;22.71;37.80
72024;BME280;59889;50.700;5.440;2022-10-16T05:53:35;99763.97;;;22.51;38.22
72024;BME280;59889;50.700;5.440;2022-10-16T05:55:58;99769.81;;;22.80;38.30
72024;BME280;59889;50.700;5.440;2022-10-16T05:58:23;99779.31;;;22.69;38.47
72024;BME280;59889;50.700;5.440;2022-10-16T06:00:52;99782.66;;;22.70;38.43
72024;BME280;59889;50.700;5.440;2022-10-16T06:03:12;99779.07;;;22.71;38.39
72024;BME280;59889;50.700;5.440;2022-10-16T06:05:37;99781.75;;;22.73;38.29
72024;BME280;59889;50.700;5.440;2022-10-16T06:08:02;99785.83;;;22.64;38.41
72024;BME280;59889;50.700;5.440;2022-10-16T06:10:27;99787.86;;;22.68;38.27
72024;BME280;59889;50.700;5.440;2022-10-16T06:12:52;99788.83;;;22.65;38.31
72024;BME280;59889;50.700;5.440;2022-10-16T06:15:17;99792.52;;;22.44;38.19
72024;BME280;59889;50.700;5.440;2022-10-16T06:17:42;99796.17;;;22.72;38.12
72024;BME280;59889;50.700;5.440;2022-10-16T06:20:08;99801.14;;;22.64;38.21
72024;BME280;59889;50.700;5.440;2022-10-16T06:22:32;99807.23;;;22.47;38.06
72024;BME280;59889;50.700;5.440;2022-10-16T06:24:57;99808.16;;;22.79;37.91
72024;BME280;59889;50.700;5.440;2022-10-16T06:27:23;99805.72;;;22.73;37.95
72024;BME280;59889;50.700;5.440;2022-10-16T06:29:48;99806.07;;;22.68;37.98
72024;BME280;59889;50.700;5.440;2022-10-16T06:32:13;99809.47;;;22.53;38.13
72024;BME280;59889;50.700;5.440;2022-10-16T06:34:38;99809.94;;;22.53;38.12
72024;BME280;59889;50.700;5.440;2022-10-16T06:37:03;99813.14;;;22.51;38.09
72024;BME280;59889;50.700;5.440;2022-10-16T06:39:28;99816.40;;;22.55;38.02
72024;BME280;59889;50.700;5.440;2022-10-16T06:41:53;99820.04;;;22.74;38.01
72024;BME280;59889;50.700;5.440;2022-10-16T06:44:18;99825.40;;;22.56;37.96
72024;BME280;59889;50.700;5.440;2022-10-16T06:46:43;99831.10;;;22.59;38.07
72024;BME280;59889;50.700;5.440;2022-10-16T06:49:08;99832.01;;;22.46;38.14
72024;BME280;59889;50.700;5.440;2022-10-16T06:51:33;99832.34;;;22.68;37.88
72024;BME280;59889;50.700;5.440;2022-10-16T06:53:58;99835.66;;;22.66;37.88
72024;BME280;59889;50.700;5.440;2022-10-16T06:56:25;99836.94;;;22.59;37.91
72024;BME280;59889;50.700;5.440;2022-10-16T06:58:48;99839.87;;;22.58;37.98
72024;BME280;59889;50.700;5.440;2022-10-16T07:01:15;99845.12;;;22.62;37.87
72024;BME280;59889;50.700;5.440;2022-10-16T07:03:39;99852.03;;;22.55;37.88
72024;BME280;59889;50.700;5.440;2022-10-16T07:06:06;99854.39;;;22.58;37.85
72024;BME280;59889;50.700;5.440;2022-10-16T07:08:30;99859.88;;;22.66;37.70
72024;BME280;59889;50.700;5.440;2022-10-16T07:10:58;99865.84;;;22.67;37.74
72024;BME280;59889;50.700;5.440;2022-10-16T07:13:20;99867.70;;;22.79;37.57
72024;BME280;59889;50.700;5.440;2022-10-16T07:15:44;99873.50;;;22.87;37.68
72024;BME280;59889;50.700;5.440;2022-10-16T07:18:09;99878.23;;;22.94;37.83
72024;BME280;59889;50.700;5.440;2022-10-16T07:20:34;99880.11;;;22.81;37.87
72024;BME280;59889;50.700;5.440;2022-10-16T07:22:59;99884.75;;;23.10;37.74
72024;BME280;59889;50.700;5.440;2022-10-16T07:25:24;99892.42;;;22.87;37.84
72024;BME280;59889;50.700;5.440;2022-10-16T07:27:49;99898.01;;;23.00;38.16
72024;BME280;59889;50.700;5.440;2022-10-16T07:30:14;99899.85;;;23.06;38.14
72024;BME280;59889;50.700;5.440;2022-10-16T07:32:39;99904.07;;;22.50;38.44
72024;BME280;59889;50.700;5.440;2022-10-16T07:35:06;99909.68;;;22.68;38.53
72024;BME280;59889;50.700;5.440;2022-10-16T07:37:30;99915.57;;;23.14;38.69
72024;BME280;59889;50.700;5.440;2022-10-16T07:39:55;99916.37;;;22.92;38.95
72024;BME280;59889;50.700;5.440;2022-10-16T07:42:20;99915.41;;;22.94;38.98
72024;BME280;59889;50.700;5.440;2022-10-16T07:44:45;99913.83;;;22.70;39.19
72024;BME280;59889;50.700;5.440;2022-10-16T07:47:12;99920.65;;;22.78;39.28
72024;BME280;59889;50.700;5.440;2022-10-16T07:49:37;99928.46;;;23.15;38.73
72024;BME280;59889;50.700;5.440;2022-10-16T07:52:03;99934.59;;;23.45;38.64
72024;BME280;59889;50.700;5.440;2022-10-16T07:54:27;99936.08;;;23.17;38.61
72024;BME280;59889;50.700;5.440;2022-10-16T07:56:52;99938.38;;;23.44;38.64
72024;BME280;59889;50.700;5.440;2022-10-16T07:59:17;99939.04;;;23.24;38.72
72024;BME280;59889;50.700;5.440;2022-10-16T08:01:42;99942.02;;;22.94;38.82
72024;BME280;59889;50.700;5.440;2022-10-16T08:04:08;99944.50;;;22.92;38.66
72024;BME280;59889;50.700;5.440;2022-10-16T08:06:35;99945.40;;;23.29;38.76
72024;BME280;59889;50.700;5.440;2022-10-16T08:08:58;99949.96;;;23.13;38.78
72024;BME280;59889;50.700;5.440;2022-10-16T08:11:23;99953.96;;;23.05;38.83
72024;BME280;59889;50.700;5.440;2022-10-16T08:13:48;99952.55;;;22.87;38.83
72024;BME280;59889;50.700;5.440;2022-10-16T08:16:14;99961.33;;;22.90;38.70
72024;BME280;59889;50.700;5.440;2022-10-16T08:18:39;99965.27;;;22.90;38.59
72024;BME280;59889;50.700;5.440;2022-10-16T08:21:05;99968.29;;;23.24;38.72
72024;BME280;59889;50.700;5.440;2022-10-16T08:23:30;99965.73;;;23.22;38.68
72024;BME280;59889;50.700;5.440;2022-10-16T08:25:55;99965.72;;;22.79;38.59
72024;BME280;59889;50.700;5.440;2022-10-16T08:28:20;99977.32;;;23.02;38.51
72024;BME280;59889;50.700;5.440;2022-10-16T08:30:44;99981.23;;;23.22;38.54
72024;BME280;59889;50.700;5.440;2022-10-16T08:33:09;99979.63;;;22.80;38.37
72024;BME280;59889;50.700;5.440;2022-10-16T08:35:35;99981.57;;;22.91;38.09
72024;BME280;59889;50.700;5.440;2022-10-16T08:38:00;99981.17;;;22.92;38.04
72024;BME280;59889;50.700;5.440;2022-10-16T08:40:26;99977.74;;;22.87;38.06
72024;BME280;59889;50.700;5.440;2022-10-16T08:43:02;99974.72;;;23.09;37.99
72024;BME280;59889;50.700;5.440;2022-10-16T08:45:23;99976.47;;;23.34;37.85
72024;BME280;59889;50.700;5.440;2022-10-16T08:47:48;99981.94;;;22.92;37.62
72024;BME280;59889;50.700;5.440;2022-10-16T08:50:10;99984.26;;;23.33;37.67
72024;BME280;59889;50.700;5.440;2022-10-16T08:52:34;99991.44;;;23.03;37.71
72024;BME280;59889;50.700;5.440;2022-10-16T08:54:55;99989.35;;;23.04;37.78
72024;BME280;59889;50.700;5.440;2022-10-16T08:57:21;99990.37;;;23.07;37.58
72024;BME280;59889;50.700;5.440;2022-10-16T08:59:45;99999.50;;;23.39;37.33
72024;BME280;59889;50.700;5.440;2022-10-16T09:02:24;100003.14;;;23.39;37.28
72024;BME280;59889;50.700;5.440;2022-10-16T09:04:44;100009.83;;;23.30;37.23
72024;BME280;59889;50.700;5.440;2022-10-16T09:07:04;100005.74;;;23.35;37.12
72024;BME280;59889;50.700;5.440;2022-10-16T09:09:40;100003.48;;;23.05;37.45
72024;BME280;59889;50.700;5.440;2022-10-16T09:11:55;100007.45;;;23.36;37.85
72024;BME280;59889;50.700;5.440;2022-10-16T09:14:32;100008.25;;;23.20;37.87
72024;BME280;59889;50.700;5.440;2022-10-16T09:16:44;100007.26;;;23.19;37.86
72024;BME280;59889;50.700;5.440;2022-10-16T09:19:12;100002.37;;;23.36;38.01
72024;BME280;59889;50.700;5.440;2022-10-16T09:21:32;100007.21;;;23.25;37.88
72024;BME280;59889;50.700;5.440;2022-10-16T09:23:58;100009.68;;;23.26;37.97
72024;BME280;59889;50.700;5.440;2022-10-16T09:26:20;100011.55;;;23.51;38.02
72024;BME280;59889;50.700;5.440;2022-10-16T09:28:46;100012.39;;;23.47;38.09
72024;BME280;59889;50.700;5.440;2022-10-16T09:31:16;100020.33;;;23.33;38.29
72024;BME280;59889;50.700;5.440;2022-10-16T09:33:37;100019.02;;;23.34;38.29
72024;BME280;59889;50.700;5.440;2022-10-16T09:36:03;100017.54;;;23.47;38.21
72024;BME280;59889;50.700;5.440;2022-10-16T09:38:29;100013.77;;;23.21;38.20
72024;BME280;59889;50.700;5.440;2022-10-16T09:40:51;100012.34;;;23.47;38.16
72024;BME280;59889;50.700;5.440;2022-10-16T09:43:22;100013.69;;;23.44;38.26
72024;BME280;59889;50.700;5.440;2022-10-16T09:45:42;100016.26;;;23.59;38.40
72024;BME280;59889;50.700;5.440;2022-10-16T09:48:11;100014.19;;;23.39;38.45
72024;BME280;59889;50.700;5.440;2022-10-16T09:50:31;100018.48;;;23.17;38.47
72024;BME280;59889;50.700;5.440;2022-10-16T09:53:05;100023.99;;;23.33;38.51
72024;BME280;59889;50.700;5.440;2022-10-16T09:55:23;100025.63;;;23.33;38.51
72024;BME280;59889;50.700;5.440;2022-10-16T09:57:49;100032.09;;;23.44;38.61
72024;BME280;59889;50.700;5.440;2022-10-16T10:00:16;100032.35;;;23.06;38.66
72024;BME280;59889;50.700;5.440;2022-10-16T10:02:38;100027.56;;;23.32;38.52
72024;BME280;59889;50.700;5.440;2022-10-16T10:05:04;100024.69;;;23.01;38.63
72024;BME280;59889;50.700;5.440;2022-10-16T10:07:31;100032.13;;;23.06;38.56
72024;BME280;59889;50.700;5.440;2022-10-16T10:09:55;100031.78;;;23.27;38.54
72024;BME280;59889;50.700;5.440;2022-10-16T10:12:20;100037.34;;;23.20;38.66
72024;BME280;59889;50.700;5.440;2022-10-16T10:14:45;100034.29;;;23.23;38.67
72024;BME280;59889;50.700;5.440;2022-10-16T10:17:12;100028.15;;;23.25;38.70
72024;BME280;59889;50.700;5.440;2022-10-16T10:19:39;100032.31;;;23.44;38.70
72024;BME280;59889;50.700;5.440;2022-10-16T10:21:58;100039.17;;;23.47;38.60
72024;BME280;59889;50.700;5.440;2022-10-16T10:24:23;100045.21;;;22.93;38.62
72024;BME280;59889;50.700;5.440;2022-10-16T10:26:52;100045.40;;;22.86;38.81
72024;BME280;59889;50.700;5.440;2022-10-16T10:29:20;100050.45;;;23.13;38.70
72024;BME280;59889;50.700;5.440;2022-10-16T10:31:42;100052.12;;;22.91;38.75
72024;BME280;59889;50.700;5.440;2022-10-16T10:34:13;100051.03;;;22.91;38.73
72024;BME280;59889;50.700;5.440;2022-10-16T10:36:34;100051.69;;;23.06;38.48
72024;BME280;59889;50.700;5.440;2022-10-16T10:38:57;100053.81;;;23.25;38.54
72024;BME280;59889;50.700;5.440;2022-10-16T10:43:54;100043.36;;;23.41;38.54
72024;BME280;59889;50.700;5.440;2022-10-16T10:46:14;100043.41;;;23.25;38.42
72024;BME280;59889;50.700;5.440;2022-10-16T10:48:49;100051.52;;;23.00;38.54
72024;BME280;59889;50.700;5.440;2022-10-16T10:51:02;100060.79;;;23.25;38.51
72024;BME280;59889;50.700;5.440;2022-10-16T10:53:31;100062.76;;;23.54;38.43
72024;BME280;59889;50.700;5.440;2022-10-16T10:55:52;100053.40;;;23.22;38.53
72024;BME280;59889;50.700;5.440;2022-10-16T10:58:25;100046.77;;;23.00;38.50
72024;BME280;59889;50.700;5.440;2022-10-16T11:00:46;100040.22;;;23.54;38.30
72024;BME280;59889;50.700;5.440;2022-10-16T11:03:12;100040.77;;;23.11;38.25
72024;BME280;59889;50.700;5.440;2022-10-16T11:05:38;100049.29;;;23.05;38.38
72024;BME280;59889;50.700;5.440;2022-10-16T11:07:58;100049.39;;;22.92;38.51
72024;BME280;59889;50.700;5.440;2022-10-16T11:10:21;100051.08;;;23.17;38.48
72024;BME280;59889;50.700;5.440;2022-10-16T11:12:47;100050.44;;;23.12;38.54
72024;BME280;59889;50.700;5.440;2022-10-16T11:15:15;100043.35;;;23.11;38.51
72024;BME280;59889;50.700;5.440;2022-10-16T11:17:38;100047.18;;;23.41;38.48
72024;BME280;59889;50.700;5.440;2022-10-16T11:20:03;100046.39;;;22.89;38.53
72024;BME280;59889;50.700;5.440;2022-10-16T11:22:30;100041.09;;;23.38;38.57
72024;BME280;59889;50.700;5.440;2022-10-16T11:24:54;100043.78;;;23.10;38.43
72024;BME280;59889;50.700;5.440;2022-10-16T11:27:17;100042.21;;;23.07;38.67
72024;BME280;59889;50.700;5.440;2022-10-16T11:29:46;100041.19;;;22.88;38.57
72024;BME280;59889;50.700;5.440;2022-10-16T11:32:16;100035.07;;;23.42;38.48
72024;BME280;59889;50.700;5.440;2022-10-16T11:34:34;100033.45;;;22.89;38.54
72024;BME280;59889;50.700;5.440;2022-10-16T11:36:58;100035.87;;;23.17;38.43
72024;BME280;59889;50.700;5.440;2022-10-16T11:39:21;100038.10;;;23.23;38.40
72024;BME280;59889;50.700;5.440;2022-10-16T11:41:48;100042.27;;;23.20;38.44
72024;BME280;59889;50.700;5.440;2022-10-16T11:44:19;100044.29;;;23.30;38.43
72024;BME280;59889;50.700;5.440;2022-10-16T11:46:36;100043.09;;;23.26;38.44
72024;BME280;59889;50.700;5.440;2022-10-16T11:49:03;100043.21;;;23.26;38.53
72024;BME280;59889;50.700;5.440;2022-10-16T11:51:31;100039.32;;;23.07;38.43
72024;BME280;59889;50.700;5.440;2022-10-16T11:53:55;100035.84;;;22.89;38.73
72024;BME280;59889;50.700;5.440;2022-10-16T11:56:17;100032.48;;;22.98;38.67
72024;BME280;59889;50.700;5.440;2022-10-16T11:58:48;100027.03;;;23.02;38.59
72024;BME280;59889;50.700;5.440;2022-10-16T12:01:15;100027.28;;;23.17;38.64
72024;BME280;59889;50.700;5.440;2022-10-16T12:03:34;100028.54;;;23.27;38.51
72024;BME280;59889;50.700;5.440;2022-10-16T12:06:04;100036.09;;;23.24;38.55
72024;BME280;59889;50.700;5.440;2022-10-16T12:08:20;100036.84;;;23.24;38.57
72024;BME280;59889;50.700;5.440;2022-10-16T12:10:47;100037.80;;;22.99;38.55
72024;BME280;59889;50.700;5.440;2022-10-16T12:13:29;100048.45;;;23.43;38.56
72024;BME280;59889;50.700;5.440;2022-10-16T12:15:35;100046.54;;;23.30;38.43
72024;BME280;59889;50.700;5.440;2022-10-16T12:18:00;100040.90;;;23.20;38.52
72024;BME280;59889;50.700;5.440;2022-10-16T12:20:28;100036.18;;;23.21;38.53
72024;BME280;59889;50.700;5.440;2022-10-16T12:22:52;100033.50;;;22.90;38.65
72024;BME280;59889;50.700;5.440;2022-10-16T12:25:21;100039.12;;;22.96;38.55
72024;BME280;59889;50.700;5.440;2022-10-16T12:27:41;100040.96;;;22.92;38.53
72024;BME280;59889;50.700;5.440;2022-10-16T12:30:06;100044.32;;;23.42;38.48
72024;BME280;59889;50.700;5.440;2022-10-16T12:32:32;100036.00;;;23.18;38.50
72024;BME280;59889;50.700;5.440;2022-10-16T12:34:56;100034.66;;;23.20;38.40
72024;BME280;59889;50.700;5.440;2022-10-16T12:37:23;100031.27;;;22.94;38.45
72024;BME280;59889;50.700;5.440;2022-10-16T12:39:47;100022.55;;;22.97;38.44
72024;BME280;59889;50.700;5.440;2022-10-16T12:42:22;100023.66;;;23.14;38.50
72024;BME280;59889;50.700;5.440;2022-10-16T12:44:36;100018.30;;;23.21;38.42
72024;BME280;59889;50.700;5.440;2022-10-16T12:47:02;100018.83;;;22.95;38.41
72024;BME280;59889;50.700;5.440;2022-10-16T12:49:32;100020.43;;;22.93;38.44